Terminal Aerodrome Forecast
Issued by NWS Wilmington, NC

Home | Current Version | Previous Version | Text Only | Print | Product List | Glossary On
Versions: 1 2 3 4 5 6 7 8 9 10 11 12 13 14 15
000
FTUS42 KILM 251400 AAA
TAFMYR
TAF AMD
KMYR 251400Z 2514/2612 23008KT P6SM SCT025 SCT060
      TEMPO 2514/2516 BKN020
     FM251600 17011KT P6SM VCSH SCT030 BKN050
     FM251900 19013KT P6SM SCT035 SCT250
     FM260400 22007KT P6SM SCT250=

USA.gov is the U.S. government's official web portal to all federal, state and local government web resources and services.